Terminal Aerodrome Forecast
Issued by NWS North Platte, NE

Home | Current Version | Previous Version | Graphics & Text | Print | Product List | Glossary On
Versions: 1 2 3 4 5 6 7 8 9 10 11 12 13 14 15 16 17
642
FTUS43 KLBF 212320
TAFVTN
TAF
KVTN 212320Z 2200/2224 12008KT P6SM BKN030
     FM220200 13007KT P6SM BKN040
     FM220500 16006KT P6SM BKN090
     FM221100 19004KT P6SM SCT200
     FM221600 19008KT P6SM SCT250
     FM222200 16009KT P6SM FEW120=

USA.gov is the U.S. government's official web portal to all federal, state and local government web resources and services.